Terminal Aerodrome Forecast
Issued by NWS

Current Version | Previous Version | Text Only | Print | Product List | Glossary On
Versions: 1 2 3 4 5 6 7 8 9 10 11 12 13 14 15
774
FTUS43 KLSX 291126
TAFCPS
TAF
KCPS 291126Z 2912/3012 19008KT P6SM VCSH SCT070 BKN140
     FM291300 20012G20KT P6SM SCT060 BKN250
     FM300800 18009KT P6SM VCTS BKN025CB=

USA.gov is the U.S. government's official web portal to all federal, state and local government web resources and services.